sensor_id;sensor_type;location;lat;lon;timestamp;P1;durP1;ratioP1;P2;durP2;ratioP2
4244;SDS011;2136;48.502;9.194;2022-07-01T00:00:10;1.70;;;1.37;;
4244;SDS011;2136;48.502;9.194;2022-07-01T00:02:38;3.90;;;1.63;;
4244;SDS011;2136;48.502;9.194;2022-07-01T00:05:05;3.57;;;1.40;;
4244;SDS011;2136;48.502;9.194;2022-07-01T00:07:32;2.20;;;2.00;;
4244;SDS011;2136;48.502;9.194;2022-07-01T00:09:59;2.53;;;1.60;;
4244;SDS011;2136;48.502;9.194;2022-07-01T00:12:27;1.40;;;1.33;;
4244;SDS011;2136;48.502;9.194;2022-07-01T00:14:54;1.87;;;1.40;;
4244;SDS011;2136;48.502;9.194;2022-07-01T00:17:20;2.93;;;1.90;;
4244;SDS011;2136;48.502;9.194;2022-07-01T00:19:47;2.03;;;1.83;;
4244;SDS011;2136;48.502;9.194;2022-07-01T00:22:15;6.07;;;1.67;;
4244;SDS011;2136;48.502;9.194;2022-07-01T00:24:42;2.40;;;1.60;;
4244;SDS011;2136;48.502;9.194;2022-07-01T00:27:10;2.60;;;1.80;;
4244;SDS011;2136;48.502;9.194;2022-07-01T00:29:39;2.90;;;2.60;;
4244;SDS011;2136;48.502;9.194;2022-07-01T00:32:06;5.00;;;1.50;;
4244;SDS011;2136;48.502;9.194;2022-07-01T00:34:34;2.87;;;1.63;;
4244;SDS011;2136;48.502;9.194;2022-07-01T00:37:01;3.40;;;1.40;;
4244;SDS011;2136;48.502;9.194;2022-07-01T00:39:28;3.03;;;1.87;;
4244;SDS011;2136;48.502;9.194;2022-07-01T00:41:57;1.60;;;1.50;;
4244;SDS011;2136;48.502;9.194;2022-07-01T00:44:26;2.33;;;1.47;;
4244;SDS011;2136;48.502;9.194;2022-07-01T00:46:54;1.57;;;1.30;;
4244;SDS011;2136;48.502;9.194;2022-07-01T00:49:24;1.47;;;1.37;;
4244;SDS011;2136;48.502;9.194;2022-07-01T00:51:52;2.20;;;1.33;;
4244;SDS011;2136;48.502;9.194;2022-07-01T00:54:19;2.50;;;1.60;;
4244;SDS011;2136;48.502;9.194;2022-07-01T00:56:47;1.00;;;1.00;;
4244;SDS011;2136;48.502;9.194;2022-07-01T00:59:14;3.17;;;0.97;;
4244;SDS011;2136;48.502;9.194;2022-07-01T01:01:41;1.33;;;1.23;;
4244;SDS011;2136;48.502;9.194;2022-07-01T01:04:09;1.23;;;1.17;;
4244;SDS011;2136;48.502;9.194;2022-07-01T01:06:36;2.43;;;1.43;;
4244;SDS011;2136;48.502;9.194;2022-07-01T01:09:03;5.80;;;1.37;;
4244;SDS011;2136;48.502;9.194;2022-07-01T01:11:30;2.63;;;1.27;;
4244;SDS011;2136;48.502;9.194;2022-07-01T01:13:57;1.40;;;1.30;;
4244;SDS011;2136;48.502;9.194;2022-07-01T01:16:24;1.30;;;1.20;;
4244;SDS011;2136;48.502;9.194;2022-07-01T01:18:52;1.27;;;1.17;;
4244;SDS011;2136;48.502;9.194;2022-07-01T01:24:42;2.13;;;1.23;;
4244;SDS011;2136;48.502;9.194;2022-07-01T01:27:10;1.20;;;1.10;;
4244;SDS011;2136;48.502;9.194;2022-07-01T01:29:37;1.00;;;0.90;;
4244;SDS011;2136;48.502;9.194;2022-07-01T01:32:05;1.27;;;1.13;;
4244;SDS011;2136;48.502;9.194;2022-07-01T01:34:32;1.47;;;1.07;;
4244;SDS011;2136;48.502;9.194;2022-07-01T01:37:00;1.70;;;1.03;;
4244;SDS011;2136;48.502;9.194;2022-07-01T01:39:27;1.13;;;0.90;;
4244;SDS011;2136;48.502;9.194;2022-07-01T01:41:55;1.23;;;1.03;;
4244;SDS011;2136;48.502;9.194;2022-07-01T01:44:23;2.33;;;1.10;;
4244;SDS011;2136;48.502;9.194;2022-07-01T01:46:49;1.03;;;1.03;;
4244;SDS011;2136;48.502;9.194;2022-07-01T01:49:16;1.67;;;1.00;;
4244;SDS011;2136;48.502;9.194;2022-07-01T01:51:43;1.13;;;0.97;;
4244;SDS011;2136;48.502;9.194;2022-07-01T01:54:10;0.83;;;0.83;;
4244;SDS011;2136;48.502;9.194;2022-07-01T01:56:37;1.23;;;1.13;;
4244;SDS011;2136;48.502;9.194;2022-07-01T01:59:05;1.07;;;0.97;;
4244;SDS011;2136;48.502;9.194;2022-07-01T02:01:32;0.87;;;0.87;;
4244;SDS011;2136;48.502;9.194;2022-07-01T02:03:59;0.93;;;0.93;;
4244;SDS011;2136;48.502;9.194;2022-07-01T02:06:26;1.67;;;1.10;;
4244;SDS011;2136;48.502;9.194;2022-07-01T02:08:52;2.20;;;1.77;;
4244;SDS011;2136;48.502;9.194;2022-07-01T02:11:19;2.33;;;1.30;;
4244;SDS011;2136;48.502;9.194;2022-07-01T02:13:46;0.90;;;0.90;;
4244;SDS011;2136;48.502;9.194;2022-07-01T02:16:14;3.80;;;1.20;;
4244;SDS011;2136;48.502;9.194;2022-07-01T02:18:41;3.20;;;0.80;;
4244;SDS011;2136;48.502;9.194;2022-07-01T02:21:08;1.30;;;1.20;;
4244;SDS011;2136;48.502;9.194;2022-07-01T02:23:35;1.37;;;1.00;;
4244;SDS011;2136;48.502;9.194;2022-07-01T02:26:02;1.83;;;1.17;;
4244;SDS011;2136;48.502;9.194;2022-07-01T02:28:29;1.57;;;1.00;;
4244;SDS011;2136;48.502;9.194;2022-07-01T02:30:55;0.80;;;0.73;;
4244;SDS011;2136;48.502;9.194;2022-07-01T02:33:24;1.90;;;1.10;;
4244;SDS011;2136;48.502;9.194;2022-07-01T02:35:51;4.80;;;1.23;;
4244;SDS011;2136;48.502;9.194;2022-07-01T02:38:17;0.80;;;0.80;;
4244;SDS011;2136;48.502;9.194;2022-07-01T02:40:44;1.43;;;1.00;;
4244;SDS011;2136;48.502;9.194;2022-07-01T02:43:11;1.00;;;0.83;;
4244;SDS011;2136;48.502;9.194;2022-07-01T02:45:38;2.50;;;1.10;;
4244;SDS011;2136;48.502;9.194;2022-07-01T02:48:06;1.40;;;0.90;;
4244;SDS011;2136;48.502;9.194;2022-07-01T02:50:35;11.47;;;1.00;;
4244;SDS011;2136;48.502;9.194;2022-07-01T02:53:02;0.70;;;0.70;;
4244;SDS011;2136;48.502;9.194;2022-07-01T02:55:29;3.90;;;0.83;;
4244;SDS011;2136;48.502;9.194;2022-07-01T02:57:56;1.33;;;0.87;;
4244;SDS011;2136;48.502;9.194;2022-07-01T03:00:23;0.80;;;0.80;;
4244;SDS011;2136;48.502;9.194;2022-07-01T03:02:51;1.17;;;0.90;;
4244;SDS011;2136;48.502;9.194;2022-07-01T03:05:18;2.60;;;1.00;;
4244;SDS011;2136;48.502;9.194;2022-07-01T03:07:46;0.70;;;0.70;;
4244;SDS011;2136;48.502;9.194;2022-07-01T03:10:13;1.00;;;1.00;;
4244;SDS011;2136;48.502;9.194;2022-07-01T03:12:39;0.80;;;0.80;;
4244;SDS011;2136;48.502;9.194;2022-07-01T03:15:07;3.40;;;0.93;;
4244;SDS011;2136;48.502;9.194;2022-07-01T03:17:35;1.07;;;0.83;;
4244;SDS011;2136;48.502;9.194;2022-07-01T03:20:04;1.53;;;1.00;;
4244;SDS011;2136;48.502;9.194;2022-07-01T03:22:31;0.87;;;0.87;;
4244;SDS011;2136;48.502;9.194;2022-07-01T03:25:00;2.20;;;0.93;;
4244;SDS011;2136;48.502;9.194;2022-07-01T03:27:28;0.90;;;0.90;;
4244;SDS011;2136;48.502;9.194;2022-07-01T03:29:56;0.83;;;0.83;;
4244;SDS011;2136;48.502;9.194;2022-07-01T03:32:23;1.00;;;0.97;;
4244;SDS011;2136;48.502;9.194;2022-07-01T03:34:50;0.90;;;0.90;;
4244;SDS011;2136;48.502;9.194;2022-07-01T03:37:19;1.80;;;0.90;;
4244;SDS011;2136;48.502;9.194;2022-07-01T03:39:47;0.80;;;0.80;;
4244;SDS011;2136;48.502;9.194;2022-07-01T03:42:15;0.90;;;0.90;;
4244;SDS011;2136;48.502;9.194;2022-07-01T03:44:43;0.90;;;0.90;;
4244;SDS011;2136;48.502;9.194;2022-07-01T03:47:10;2.00;;;1.10;;
4244;SDS011;2136;48.502;9.194;2022-07-01T03:49:37;1.30;;;1.13;;
4244;SDS011;2136;48.502;9.194;2022-07-01T03:52:04;3.43;;;0.80;;
4244;SDS011;2136;48.502;9.194;2022-07-01T03:54:31;0.80;;;0.80;;
4244;SDS011;2136;48.502;9.194;2022-07-01T03:56:58;1.20;;;1.10;;
4244;SDS011;2136;48.502;9.194;2022-07-01T03:59:28;1.10;;;1.00;;
4244;SDS011;2136;48.502;9.194;2022-07-01T04:01:56;1.03;;;1.00;;
4244;SDS011;2136;48.502;9.194;2022-07-01T04:04:24;1.53;;;0.90;;
4244;SDS011;2136;48.502;9.194;2022-07-01T04:06:52;5.10;;;1.10;;
4244;SDS011;2136;48.502;9.194;2022-07-01T04:09:19;1.87;;;0.90;;
4244;SDS011;2136;48.502;9.194;2022-07-01T04:11:47;0.90;;;0.90;;
4244;SDS011;2136;48.502;9.194;2022-07-01T04:14:15;0.83;;;0.83;;
4244;SDS011;2136;48.502;9.194;2022-07-01T04:16:43;1.13;;;1.07;;
4244;SDS011;2136;48.502;9.194;2022-07-01T04:19:11;2.00;;;1.07;;
4244;SDS011;2136;48.502;9.194;2022-07-01T04:21:39;1.20;;;1.10;;
4244;SDS011;2136;48.502;9.194;2022-07-01T04:24:23;1.80;;;1.70;;
4244;SDS011;2136;48.502;9.194;2022-07-01T04:26:51;1.00;;;1.00;;
4244;SDS011;2136;48.502;9.194;2022-07-01T04:29:18;0.97;;;0.97;;
4244;SDS011;2136;48.502;9.194;2022-07-01T04:31:47;1.10;;;0.90;;
4244;SDS011;2136;48.502;9.194;2022-07-01T04:34:14;2.47;;;1.27;;
4244;SDS011;2136;48.502;9.194;2022-07-01T04:36:40;1.40;;;1.13;;
4244;SDS011;2136;48.502;9.194;2022-07-01T04:39:07;1.37;;;1.00;;
4244;SDS011;2136;48.502;9.194;2022-07-01T04:41:34;3.90;;;0.80;;
4244;SDS011;2136;48.502;9.194;2022-07-01T04:44:19;2.57;;;0.90;;
4244;SDS011;2136;48.502;9.194;2022-07-01T04:46:47;0.80;;;0.80;;
4244;SDS011;2136;48.502;9.194;2022-07-01T04:49:14;0.83;;;0.83;;
4244;SDS011;2136;48.502;9.194;2022-07-01T04:51:41;1.27;;;1.13;;
4244;SDS011;2136;48.502;9.194;2022-07-01T04:54:08;1.50;;;1.13;;
4244;SDS011;2136;48.502;9.194;2022-07-01T04:56:35;1.60;;;1.20;;
4244;SDS011;2136;48.502;9.194;2022-07-01T04:59:03;1.40;;;1.30;;
4244;SDS011;2136;48.502;9.194;2022-07-01T05:01:30;1.17;;;1.00;;
4244;SDS011;2136;48.502;9.194;2022-07-01T05:03:58;1.23;;;1.10;;
4244;SDS011;2136;48.502;9.194;2022-07-01T05:06:25;1.03;;;1.03;;
4244;SDS011;2136;48.502;9.194;2022-07-01T05:08:52;3.90;;;1.30;;
4244;SDS011;2136;48.502;9.194;2022-07-01T05:11:19;2.10;;;1.50;;
4244;SDS011;2136;48.502;9.194;2022-07-01T05:13:46;1.00;;;1.00;;
4244;SDS011;2136;48.502;9.194;2022-07-01T05:16:13;1.23;;;1.13;;
4244;SDS011;2136;48.502;9.194;2022-07-01T05:18:40;1.30;;;1.20;;
4244;SDS011;2136;48.502;9.194;2022-07-01T05:21:26;1.57;;;1.17;;
4244;SDS011;2136;48.502;9.194;2022-07-01T05:24:10;1.57;;;1.47;;
4244;SDS011;2136;48.502;9.194;2022-07-01T05:26:37;1.23;;;1.13;;
4244;SDS011;2136;48.502;9.194;2022-07-01T05:29:04;1.10;;;1.10;;
4244;SDS011;2136;48.502;9.194;2022-07-01T05:31:31;2.10;;;1.07;;
4244;SDS011;2136;48.502;9.194;2022-07-01T05:33:58;1.20;;;1.10;;
4244;SDS011;2136;48.502;9.194;2022-07-01T05:36:27;1.00;;;1.00;;
4244;SDS011;2136;48.502;9.194;2022-07-01T05:38:54;0.97;;;0.87;;
4244;SDS011;2136;48.502;9.194;2022-07-01T05:41:20;1.20;;;1.13;;
4244;SDS011;2136;48.502;9.194;2022-07-01T05:43:48;1.77;;;1.33;;
4244;SDS011;2136;48.502;9.194;2022-07-01T05:46:15;1.00;;;1.00;;
4244;SDS011;2136;48.502;9.194;2022-07-01T05:48:41;1.83;;;1.73;;
4244;SDS011;2136;48.502;9.194;2022-07-01T05:51:08;1.00;;;1.00;;
4244;SDS011;2136;48.502;9.194;2022-07-01T05:53:36;1.30;;;1.20;;
4244;SDS011;2136;48.502;9.194;2022-07-01T05:56:04;1.00;;;1.00;;
4244;SDS011;2136;48.502;9.194;2022-07-01T05:58:31;1.33;;;0.87;;
4244;SDS011;2136;48.502;9.194;2022-07-01T06:00:57;5.63;;;1.03;;
4244;SDS011;2136;48.502;9.194;2022-07-01T06:03:24;1.13;;;1.13;;
4244;SDS011;2136;48.502;9.194;2022-07-01T06:05:51;0.83;;;0.83;;
4244;SDS011;2136;48.502;9.194;2022-07-01T06:08:18;2.30;;;1.60;;
4244;SDS011;2136;48.502;9.194;2022-07-01T06:10:46;1.00;;;1.00;;
4244;SDS011;2136;48.502;9.194;2022-07-01T06:13:13;1.10;;;1.00;;
4244;SDS011;2136;48.502;9.194;2022-07-01T06:15:41;1.00;;;1.00;;
4244;SDS011;2136;48.502;9.194;2022-07-01T06:18:08;2.50;;;1.17;;
4244;SDS011;2136;48.502;9.194;2022-07-01T06:20:34;0.80;;;0.80;;
4244;SDS011;2136;48.502;9.194;2022-07-01T06:23:01;1.00;;;1.00;;
4244;SDS011;2136;48.502;9.194;2022-07-01T06:25:28;0.80;;;0.80;;
4244;SDS011;2136;48.502;9.194;2022-07-01T06:27:56;0.90;;;0.90;;
4244;SDS011;2136;48.502;9.194;2022-07-01T06:30:23;2.10;;;0.87;;
4244;SDS011;2136;48.502;9.194;2022-07-01T06:32:50;0.80;;;0.80;;
4244;SDS011;2136;48.502;9.194;2022-07-01T06:35:16;1.80;;;1.10;;
4244;SDS011;2136;48.502;9.194;2022-07-01T06:37:43;0.90;;;0.90;;
4244;SDS011;2136;48.502;9.194;2022-07-01T06:40:10;4.10;;;0.80;;
4244;SDS011;2136;48.502;9.194;2022-07-01T06:42:37;0.73;;;0.70;;
4244;SDS011;2136;48.502;9.194;2022-07-01T06:45:06;1.13;;;0.90;;
4244;SDS011;2136;48.502;9.194;2022-07-01T06:47:33;1.00;;;1.00;;
4244;SDS011;2136;48.502;9.194;2022-07-01T06:50:01;2.10;;;0.70;;
4244;SDS011;2136;48.502;9.194;2022-07-01T06:52:28;0.90;;;0.90;;
4244;SDS011;2136;48.502;9.194;2022-07-01T06:54:55;0.70;;;0.70;;
4244;SDS011;2136;48.502;9.194;2022-07-01T06:57:22;3.50;;;0.80;;
4244;SDS011;2136;48.502;9.194;2022-07-01T06:59:48;1.30;;;1.20;;
4244;SDS011;2136;48.502;9.194;2022-07-01T07:02:17;1.03;;;1.03;;
4244;SDS011;2136;48.502;9.194;2022-07-01T07:04:43;1.38;;;1.27;;
4244;SDS011;2136;48.502;9.194;2022-07-01T07:07:11;1.03;;;0.90;;
4244;SDS011;2136;48.502;9.194;2022-07-01T07:09:37;0.67;;;0.67;;
4244;SDS011;2136;48.502;9.194;2022-07-01T07:12:04;1.60;;;0.93;;
4244;SDS011;2136;48.502;9.194;2022-07-01T07:14:32;0.83;;;0.83;;
4244;SDS011;2136;48.502;9.194;2022-07-01T07:16:58;0.80;;;0.80;;
4244;SDS011;2136;48.502;9.194;2022-07-01T07:19:27;0.70;;;0.70;;
4244;SDS011;2136;48.502;9.194;2022-07-01T07:21:53;2.20;;;0.90;;
4244;SDS011;2136;48.502;9.194;2022-07-01T07:24:21;0.70;;;0.70;;
4244;SDS011;2136;48.502;9.194;2022-07-01T07:26:48;0.80;;;0.80;;
4244;SDS011;2136;48.502;9.194;2022-07-01T07:29:15;1.13;;;1.03;;
4244;SDS011;2136;48.502;9.194;2022-07-01T07:31:42;1.13;;;0.97;;
4244;SDS011;2136;48.502;9.194;2022-07-01T07:34:08;0.80;;;0.67;;
4244;SDS011;2136;48.502;9.194;2022-07-01T07:36:37;1.23;;;0.80;;
4244;SDS011;2136;48.502;9.194;2022-07-01T07:39:03;0.87;;;0.87;;
4244;SDS011;2136;48.502;9.194;2022-07-01T07:41:30;0.80;;;0.80;;
4244;SDS011;2136;48.502;9.194;2022-07-01T07:43:58;0.60;;;0.60;;
4244;SDS011;2136;48.502;9.194;2022-07-01T07:46:25;1.00;;;0.90;;
4244;SDS011;2136;48.502;9.194;2022-07-01T07:48:52;0.80;;;0.80;;
4244;SDS011;2136;48.502;9.194;2022-07-01T07:51:19;0.70;;;0.70;;
4244;SDS011;2136;48.502;9.194;2022-07-01T07:53:49;0.80;;;0.80;;
4244;SDS011;2136;48.502;9.194;2022-07-01T07:56:16;0.70;;;0.70;;
4244;SDS011;2136;48.502;9.194;2022-07-01T07:58:43;0.70;;;0.70;;
4244;SDS011;2136;48.502;9.194;2022-07-01T08:01:09;1.13;;;0.80;;
4244;SDS011;2136;48.502;9.194;2022-07-01T08:03:36;0.80;;;0.77;;
4244;SDS011;2136;48.502;9.194;2022-07-01T08:06:03;0.93;;;0.80;;
4244;SDS011;2136;48.502;9.194;2022-07-01T08:08:31;0.70;;;0.70;;
4244;SDS011;2136;48.502;9.194;2022-07-01T08:10:59;1.10;;;0.80;;
4244;SDS011;2136;48.502;9.194;2022-07-01T08:13:26;3.03;;;0.70;;
4244;SDS011;2136;48.502;9.194;2022-07-01T08:15:53;1.07;;;0.80;;
4244;SDS011;2136;48.502;9.194;2022-07-01T08:18:21;0.77;;;0.77;;
4244;SDS011;2136;48.502;9.194;2022-07-01T08:20:48;1.00;;;0.90;;
4244;SDS011;2136;48.502;9.194;2022-07-01T08:23:17;0.70;;;0.70;;
4244;SDS011;2136;48.502;9.194;2022-07-01T08:25:45;0.60;;;0.60;;
4244;SDS011;2136;48.502;9.194;2022-07-01T08:28:14;1.10;;;0.80;;
4244;SDS011;2136;48.502;9.194;2022-07-01T08:30:40;0.83;;;0.80;;
4244;SDS011;2136;48.502;9.194;2022-07-01T08:33:08;0.60;;;0.60;;
4244;SDS011;2136;48.502;9.194;2022-07-01T08:35:35;0.97;;;0.60;;
4244;SDS011;2136;48.502;9.194;2022-07-01T08:38:02;0.80;;;0.60;;
4244;SDS011;2136;48.502;9.194;2022-07-01T08:40:30;1.23;;;0.70;;
4244;SDS011;2136;48.502;9.194;2022-07-01T08:42:58;0.70;;;0.70;;
4244;SDS011;2136;48.502;9.194;2022-07-01T08:45:28;0.87;;;0.70;;
4244;SDS011;2136;48.502;9.194;2022-07-01T08:47:56;0.90;;;0.90;;
4244;SDS011;2136;48.502;9.194;2022-07-01T08:50:26;0.70;;;0.70;;
4244;SDS011;2136;48.502;9.194;2022-07-01T08:52:53;0.60;;;0.60;;
4244;SDS011;2136;48.502;9.194;2022-07-01T08:55:20;0.70;;;0.70;;
4244;SDS011;2136;48.502;9.194;2022-07-01T08:57:48;0.60;;;0.60;;
4244;SDS011;2136;48.502;9.194;2022-07-01T09:00:16;1.37;;;0.87;;
4244;SDS011;2136;48.502;9.194;2022-07-01T09:02:52;0.70;;;0.70;;
4244;SDS011;2136;48.502;9.194;2022-07-01T09:05:21;0.80;;;0.80;;
4244;SDS011;2136;48.502;9.194;2022-07-01T09:07:48;0.67;;;0.67;;
4244;SDS011;2136;48.502;9.194;2022-07-01T09:10:21;0.70;;;0.70;;
4244;SDS011;2136;48.502;9.194;2022-07-01T09:12:48;0.53;;;0.53;;
4244;SDS011;2136;48.502;9.194;2022-07-01T09:15:22;0.70;;;0.70;;
4244;SDS011;2136;48.502;9.194;2022-07-01T09:17:52;1.07;;;0.80;;
4244;SDS011;2136;48.502;9.194;2022-07-01T09:20:24;1.80;;;0.60;;
4244;SDS011;2136;48.502;9.194;2022-07-01T09:22:59;0.77;;;0.77;;
4244;SDS011;2136;48.502;9.194;2022-07-01T09:25:30;0.93;;;0.70;;
4244;SDS011;2136;48.502;9.194;2022-07-01T09:28:03;2.57;;;0.70;;
4244;SDS011;2136;48.502;9.194;2022-07-01T09:30:31;0.80;;;0.80;;
4244;SDS011;2136;48.502;9.194;2022-07-01T09:33:07;1.73;;;0.73;;
4244;SDS011;2136;48.502;9.194;2022-07-01T09:35:35;3.23;;;0.93;;
4244;SDS011;2136;48.502;9.194;2022-07-01T09:38:02;3.23;;;0.80;;
4244;SDS011;2136;48.502;9.194;2022-07-01T09:43:13;0.70;;;0.70;;
4244;SDS011;2136;48.502;9.194;2022-07-01T09:45:48;1.10;;;1.00;;
4244;SDS011;2136;48.502;9.194;2022-07-01T09:48:17;0.80;;;0.80;;
4244;SDS011;2136;48.502;9.194;2022-07-01T09:50:44;1.00;;;0.90;;
4244;SDS011;2136;48.502;9.194;2022-07-01T09:53:11;1.23;;;0.83;;
4244;SDS011;2136;48.502;9.194;2022-07-01T09:55:39;0.90;;;0.90;;
4244;SDS011;2136;48.502;9.194;2022-07-01T09:58:06;0.70;;;0.70;;
4244;SDS011;2136;48.502;9.194;2022-07-01T10:00:35;1.60;;;1.50;;
4244;SDS011;2136;48.502;9.194;2022-07-01T10:03:03;0.97;;;0.87;;
4244;SDS011;2136;48.502;9.194;2022-07-01T10:05:35;0.70;;;0.70;;
4244;SDS011;2136;48.502;9.194;2022-07-01T10:08:10;0.60;;;0.60;;
4244;SDS011;2136;48.502;9.194;2022-07-01T10:10:57;0.73;;;0.73;;
4244;SDS011;2136;48.502;9.194;2022-07-01T10:13:37;4.30;;;0.77;;
4244;SDS011;2136;48.502;9.194;2022-07-01T10:16:07;2.50;;;0.77;;
4244;SDS011;2136;48.502;9.194;2022-07-01T10:18:35;0.60;;;0.60;;
4244;SDS011;2136;48.502;9.194;2022-07-01T10:21:03;0.70;;;0.70;;
4244;SDS011;2136;48.502;9.194;2022-07-01T10:23:36;1.23;;;1.00;;
4244;SDS011;2136;48.502;9.194;2022-07-01T10:26:04;0.60;;;0.60;;
4244;SDS011;2136;48.502;9.194;2022-07-01T10:28:40;0.70;;;0.70;;
4244;SDS011;2136;48.502;9.194;2022-07-01T10:31:09;0.97;;;0.97;;
4244;SDS011;2136;48.502;9.194;2022-07-01T10:33:45;0.70;;;0.70;;
4244;SDS011;2136;48.502;9.194;2022-07-01T10:36:23;1.53;;;1.10;;
4244;SDS011;2136;48.502;9.194;2022-07-01T10:39:11;0.80;;;0.80;;
4244;SDS011;2136;48.502;9.194;2022-07-01T10:41:46;1.10;;;1.10;;
4244;SDS011;2136;48.502;9.194;2022-07-01T10:44:23;0.90;;;0.90;;
4244;SDS011;2136;48.502;9.194;2022-07-01T10:46:51;1.00;;;1.00;;
4244;SDS011;2136;48.502;9.194;2022-07-01T10:52:22;1.37;;;1.27;;
4244;SDS011;2136;48.502;9.194;2022-07-01T10:54:50;4.13;;;1.30;;
4244;SDS011;2136;48.502;9.194;2022-07-01T10:57:28;0.90;;;0.90;;
4244;SDS011;2136;48.502;9.194;2022-07-01T11:03:14;0.70;;;0.70;;
4244;SDS011;2136;48.502;9.194;2022-07-01T11:05:47;0.70;;;0.60;;
4244;SDS011;2136;48.502;9.194;2022-07-01T11:08:17;0.80;;;0.80;;
4244;SDS011;2136;48.502;9.194;2022-07-01T11:10:48;0.90;;;0.90;;
4244;SDS011;2136;48.502;9.194;2022-07-01T11:13:17;1.43;;;0.70;;
4244;SDS011;2136;48.502;9.194;2022-07-01T11:15:46;0.90;;;0.80;;
4244;SDS011;2136;48.502;9.194;2022-07-01T11:18:13;2.43;;;0.63;;
4244;SDS011;2136;48.502;9.194;2022-07-01T11:20:42;0.60;;;0.60;;
4244;SDS011;2136;48.502;9.194;2022-07-01T11:23:09;0.90;;;0.90;;
4244;SDS011;2136;48.502;9.194;2022-07-01T11:25:37;0.60;;;0.60;;
4244;SDS011;2136;48.502;9.194;2022-07-01T11:28:04;3.07;;;1.07;;
4244;SDS011;2136;48.502;9.194;2022-07-01T11:30:31;0.60;;;0.60;;
4244;SDS011;2136;48.502;9.194;2022-07-01T11:32:58;0.70;;;0.70;;
4244;SDS011;2136;48.502;9.194;2022-07-01T11:35:26;1.00;;;1.00;;
4244;SDS011;2136;48.502;9.194;2022-07-01T11:38:12;1.00;;;1.00;;
4244;SDS011;2136;48.502;9.194;2022-07-01T11:41:00;0.63;;;0.63;;
4244;SDS011;2136;48.502;9.194;2022-07-01T11:43:29;0.87;;;0.83;;
4244;SDS011;2136;48.502;9.194;2022-07-01T11:45:59;0.60;;;0.60;;
4244;SDS011;2136;48.502;9.194;2022-07-01T11:48:28;0.80;;;0.80;;
4244;SDS011;2136;48.502;9.194;2022-07-01T11:50:55;0.70;;;0.70;;
4244;SDS011;2136;48.502;9.194;2022-07-01T11:53:23;3.70;;;0.70;;
4244;SDS011;2136;48.502;9.194;2022-07-01T11:55:50;3.37;;;0.97;;
4244;SDS011;2136;48.502;9.194;2022-07-01T11:58:19;1.23;;;0.73;;
4244;SDS011;2136;48.502;9.194;2022-07-01T12:00:46;1.40;;;0.80;;
4244;SDS011;2136;48.502;9.194;2022-07-01T12:03:13;1.03;;;0.90;;
4244;SDS011;2136;48.502;9.194;2022-07-01T12:05:54;1.37;;;0.80;;
4244;SDS011;2136;48.502;9.194;2022-07-01T12:08:21;0.70;;;0.70;;
4244;SDS011;2136;48.502;9.194;2022-07-01T12:10:48;0.77;;;0.77;;
4244;SDS011;2136;48.502;9.194;2022-07-01T12:13:22;0.63;;;0.63;;
4244;SDS011;2136;48.502;9.194;2022-07-01T12:15:49;1.23;;;0.70;;
4244;SDS011;2136;48.502;9.194;2022-07-01T12:18:16;0.80;;;0.80;;
4244;SDS011;2136;48.502;9.194;2022-07-01T12:20:47;0.97;;;0.80;;
4244;SDS011;2136;48.502;9.194;2022-07-01T12:23:16;1.10;;;0.70;;
4244;SDS011;2136;48.502;9.194;2022-07-01T12:25:46;0.80;;;0.80;;
4244;SDS011;2136;48.502;9.194;2022-07-01T12:28:29;0.80;;;0.80;;
4244;SDS011;2136;48.502;9.194;2022-07-01T12:31:00;2.60;;;0.80;;
4244;SDS011;2136;48.502;9.194;2022-07-01T12:33:33;2.40;;;0.80;;
4244;SDS011;2136;48.502;9.194;2022-07-01T12:36:01;0.90;;;0.80;;
4244;SDS011;2136;48.502;9.194;2022-07-01T12:38:29;1.83;;;0.90;;
4244;SDS011;2136;48.502;9.194;2022-07-01T12:40:56;1.27;;;0.70;;
4244;SDS011;2136;48.502;9.194;2022-07-01T12:43:24;0.70;;;0.70;;
4244;SDS011;2136;48.502;9.194;2022-07-01T12:45:55;0.90;;;0.70;;
4244;SDS011;2136;48.502;9.194;2022-07-01T12:48:23;0.77;;;0.77;;
4244;SDS011;2136;48.502;9.194;2022-07-01T12:50:51;0.73;;;0.73;;
4244;SDS011;2136;48.502;9.194;2022-07-01T12:53:20;0.73;;;0.73;;
4244;SDS011;2136;48.502;9.194;2022-07-01T12:55:48;4.40;;;0.70;;
4244;SDS011;2136;48.502;9.194;2022-07-01T12:58:17;0.97;;;0.80;;
4244;SDS011;2136;48.502;9.194;2022-07-01T13:00:45;3.70;;;0.77;;
4244;SDS011;2136;48.502;9.194;2022-07-01T13:03:17;0.73;;;0.73;;
4244;SDS011;2136;48.502;9.194;2022-07-01T13:05:46;0.70;;;0.70;;
4244;SDS011;2136;48.502;9.194;2022-07-01T13:08:13;1.00;;;0.80;;
4244;SDS011;2136;48.502;9.194;2022-07-01T13:10:40;0.90;;;0.90;;
4244;SDS011;2136;48.502;9.194;2022-07-01T13:13:08;1.13;;;0.80;;
4244;SDS011;2136;48.502;9.194;2022-07-01T13:15:35;7.17;;;0.80;;
4244;SDS011;2136;48.502;9.194;2022-07-01T13:18:02;0.90;;;0.90;;
4244;SDS011;2136;48.502;9.194;2022-07-01T13:20:31;1.47;;;1.00;;
4244;SDS011;2136;48.502;9.194;2022-07-01T13:22:58;2.10;;;0.80;;
4244;SDS011;2136;48.502;9.194;2022-07-01T13:25:25;3.33;;;0.93;;
4244;SDS011;2136;48.502;9.194;2022-07-01T13:27:53;0.80;;;0.80;;
4244;SDS011;2136;48.502;9.194;2022-07-01T13:30:20;0.83;;;0.80;;
4244;SDS011;2136;48.502;9.194;2022-07-01T13:32:47;1.13;;;1.07;;
4244;SDS011;2136;48.502;9.194;2022-07-01T13:35:17;0.60;;;0.60;;
4244;SDS011;2136;48.502;9.194;2022-07-01T13:37:46;2.83;;;1.20;;
4244;SDS011;2136;48.502;9.194;2022-07-01T13:40:12;1.60;;;0.90;;
4244;SDS011;2136;48.502;9.194;2022-07-01T13:42:40;1.07;;;0.90;;
4244;SDS011;2136;48.502;9.194;2022-07-01T13:45:07;1.80;;;0.90;;
4244;SDS011;2136;48.502;9.194;2022-07-01T13:47:34;1.63;;;1.00;;
4244;SDS011;2136;48.502;9.194;2022-07-01T13:50:02;2.23;;;1.23;;
4244;SDS011;2136;48.502;9.194;2022-07-01T13:52:29;4.10;;;1.17;;
4244;SDS011;2136;48.502;9.194;2022-07-01T13:54:57;0.87;;;0.87;;
4244;SDS011;2136;48.502;9.194;2022-07-01T13:57:24;1.10;;;0.83;;
4244;SDS011;2136;48.502;9.194;2022-07-01T13:59:51;1.63;;;1.00;;
4244;SDS011;2136;48.502;9.194;2022-07-01T14:02:18;1.30;;;1.20;;
4244;SDS011;2136;48.502;9.194;2022-07-01T14:04:45;1.33;;;0.63;;
4244;SDS011;2136;48.502;9.194;2022-07-01T14:07:12;0.80;;;0.80;;
4244;SDS011;2136;48.502;9.194;2022-07-01T14:09:40;0.90;;;0.90;;
4244;SDS011;2136;48.502;9.194;2022-07-01T14:12:11;0.98;;;0.98;;
4244;SDS011;2136;48.502;9.194;2022-07-01T14:14:40;1.57;;;0.90;;
4244;SDS011;2136;48.502;9.194;2022-07-01T14:17:09;1.23;;;1.00;;
4244;SDS011;2136;48.502;9.194;2022-07-01T14:19:36;1.30;;;1.20;;
4244;SDS011;2136;48.502;9.194;2022-07-01T14:22:03;1.27;;;1.00;;
4244;SDS011;2136;48.502;9.194;2022-07-01T14:24:30;2.20;;;1.10;;
4244;SDS011;2136;48.502;9.194;2022-07-01T14:26:57;1.00;;;0.90;;
4244;SDS011;2136;48.502;9.194;2022-07-01T14:29:26;0.83;;;0.80;;
4244;SDS011;2136;48.502;9.194;2022-07-01T14:31:52;3.03;;;1.20;;
4244;SDS011;2136;48.502;9.194;2022-07-01T14:34:19;1.10;;;1.00;;
4244;SDS011;2136;48.502;9.194;2022-07-01T14:36:46;0.80;;;0.80;;
4244;SDS011;2136;48.502;9.194;2022-07-01T14:39:13;1.13;;;1.03;;
4244;SDS011;2136;48.502;9.194;2022-07-01T14:41:40;1.90;;;1.03;;
4244;SDS011;2136;48.502;9.194;2022-07-01T14:44:07;1.17;;;0.80;;
4244;SDS011;2136;48.502;9.194;2022-07-01T14:46:35;1.43;;;0.80;;
4244;SDS011;2136;48.502;9.194;2022-07-01T14:49:02;0.80;;;0.80;;
4244;SDS011;2136;48.502;9.194;2022-07-01T14:51:29;1.40;;;1.00;;
4244;SDS011;2136;48.502;9.194;2022-07-01T14:53:56;0.87;;;0.87;;
4244;SDS011;2136;48.502;9.194;2022-07-01T14:56:23;3.53;;;1.30;;
4244;SDS011;2136;48.502;9.194;2022-07-01T14:58:52;1.07;;;0.80;;
4244;SDS011;2136;48.502;9.194;2022-07-01T15:01:19;3.57;;;0.90;;
4244;SDS011;2136;48.502;9.194;2022-07-01T15:03:49;0.80;;;0.80;;
4244;SDS011;2136;48.502;9.194;2022-07-01T15:06:16;0.80;;;0.80;;
4244;SDS011;2136;48.502;9.194;2022-07-01T15:08:43;0.80;;;0.80;;
4244;SDS011;2136;48.502;9.194;2022-07-01T15:11:09;0.90;;;0.60;;
4244;SDS011;2136;48.502;9.194;2022-07-01T15:13:36;0.70;;;0.70;;
4244;SDS011;2136;48.502;9.194;2022-07-01T15:16:03;1.57;;;1.00;;
4244;SDS011;2136;48.502;9.194;2022-07-01T15:18:31;1.80;;;0.70;;
4244;SDS011;2136;48.502;9.194;2022-07-01T15:20:59;2.30;;;1.10;;
4244;SDS011;2136;48.502;9.194;2022-07-01T15:23:26;0.80;;;0.80;;
4244;SDS011;2136;48.502;9.194;2022-07-01T15:25:54;0.70;;;0.70;;
4244;SDS011;2136;48.502;9.194;2022-07-01T15:28:21;1.20;;;0.90;;
4244;SDS011;2136;48.502;9.194;2022-07-01T15:30:49;3.23;;;0.90;;
4244;SDS011;2136;48.502;9.194;2022-07-01T15:33:16;0.80;;;0.80;;